sensor_id;sensor_type;location;lat;lon;timestamp;pressure;altitude;pressure_sealevel;temperature;humidity
11349;BME280;5729;43.570;27.826;2022-07-29T00:00:28;99181.94;;;21.94;100.00
11349;BME280;5729;43.570;27.826;2022-07-29T00:02:54;99178.53;;;21.73;100.00
11349;BME280;5729;43.570;27.826;2022-07-29T00:05:19;99182.72;;;21.62;100.00
11349;BME280;5729;43.570;27.826;2022-07-29T00:07:45;99183.66;;;21.71;100.00
11349;BME280;5729;43.570;27.826;2022-07-29T00:10:11;99180.06;;;21.74;100.00
11349;BME280;5729;43.570;27.826;2022-07-29T00:12:36;99160.53;;;21.72;100.00
11349;BME280;5729;43.570;27.826;2022-07-29T00:15:03;99191.38;;;21.93;100.00
11349;BME280;5729;43.570;27.826;2022-07-29T00:17:29;99155.31;;;21.78;100.00
11349;BME280;5729;43.570;27.826;2022-07-29T00:19:54;99186.41;;;22.04;100.00
11349;BME280;5729;43.570;27.826;2022-07-29T00:22:20;99176.28;;;22.01;100.00
11349;BME280;5729;43.570;27.826;2022-07-29T00:24:47;99165.66;;;21.87;100.00
11349;BME280;5729;43.570;27.826;2022-07-29T00:27:13;99170.03;;;21.84;100.00
11349;BME280;5729;43.570;27.826;2022-07-29T00:29:39;99151.28;;;21.66;100.00
11349;BME280;5729;43.570;27.826;2022-07-29T00:32:05;99174.50;;;21.78;100.00
11349;BME280;5729;43.570;27.826;2022-07-29T00:34:30;99143.53;;;21.45;100.00
11349;BME280;5729;43.570;27.826;2022-07-29T00:37:15;99181.69;;;21.72;100.00
11349;BME280;5729;43.570;27.826;2022-07-29T00:39:40;99182.03;;;21.74;100.00
11349;BME280;5729;43.570;27.826;2022-07-29T00:42:06;99159.41;;;21.54;100.00
11349;BME280;5729;43.570;27.826;2022-07-29T00:44:39;99175.44;;;21.71;100.00
11349;BME280;5729;43.570;27.826;2022-07-29T00:47:05;99176.56;;;21.74;100.00
11349;BME280;5729;43.570;27.826;2022-07-29T00:49:31;99147.66;;;21.53;100.00
11349;BME280;5729;43.570;27.826;2022-07-29T00:51:57;99153.31;;;21.62;100.00
11349;BME280;5729;43.570;27.826;2022-07-29T00:54:23;99168.41;;;21.70;100.00
11349;BME280;5729;43.570;27.826;2022-07-29T00:56:49;99173.47;;;21.72;100.00
11349;BME280;5729;43.570;27.826;2022-07-29T00:59:14;99132.66;;;21.58;100.00
11349;BME280;5729;43.570;27.826;2022-07-29T01:01:40;99152.97;;;21.60;100.00
11349;BME280;5729;43.570;27.826;2022-07-29T01:04:05;99182.97;;;21.84;100.00
11349;BME280;5729;43.570;27.826;2022-07-29T01:06:32;99175.53;;;21.84;100.00
11349;BME280;5729;43.570;27.826;2022-07-29T01:08:59;99158.38;;;21.64;100.00
11349;BME280;5729;43.570;27.826;2022-07-29T01:11:25;99150.41;;;21.69;100.00
11349;BME280;5729;43.570;27.826;2022-07-29T01:13:51;99152.72;;;21.71;100.00
11349;BME280;5729;43.570;27.826;2022-07-29T01:16:32;99152.63;;;21.74;100.00
11349;BME280;5729;43.570;27.826;2022-07-29T01:21:51;99163.78;;;21.84;100.00
11349;BME280;5729;43.570;27.826;2022-07-29T01:30:26;99172.00;;;21.84;100.00
11349;BME280;5729;43.570;27.826;2022-07-29T01:33:03;99162.06;;;21.73;100.00
11349;BME280;5729;43.570;27.826;2022-07-29T01:35:38;99161.09;;;21.80;100.00
11349;BME280;5729;43.570;27.826;2022-07-29T01:38:17;99155.88;;;21.69;100.00
11349;BME280;5729;43.570;27.826;2022-07-29T01:40:51;99155.03;;;21.56;100.00
11349;BME280;5729;43.570;27.826;2022-07-29T01:43:20;99173.03;;;21.41;100.00
11349;BME280;5729;43.570;27.826;2022-07-29T01:46:04;99180.22;;;21.15;100.00
11349;BME280;5729;43.570;27.826;2022-07-29T01:48:58;99173.94;;;20.98;100.00
11349;BME280;5729;43.570;27.826;2022-07-29T01:51:31;99132.53;;;20.57;100.00
11349;BME280;5729;43.570;27.826;2022-07-29T01:54:05;99177.38;;;20.83;100.00
11349;BME280;5729;43.570;27.826;2022-07-29T01:56:34;99109.56;;;20.31;100.00
11349;BME280;5729;43.570;27.826;2022-07-29T01:59:01;99163.72;;;20.63;100.00
11349;BME280;5729;43.570;27.826;2022-07-29T02:01:29;99176.28;;;20.60;100.00
11349;BME280;5729;43.570;27.826;2022-07-29T02:03:57;99158.75;;;20.35;100.00
11349;BME280;5729;43.570;27.826;2022-07-29T02:06:25;99152.56;;;20.30;100.00
11349;BME280;5729;43.570;27.826;2022-07-29T02:08:52;99141.84;;;20.20;100.00
11349;BME280;5729;43.570;27.826;2022-07-29T02:11:18;99111.91;;;20.09;100.00
11349;BME280;5729;43.570;27.826;2022-07-29T02:13:45;99157.78;;;20.45;100.00
11349;BME280;5729;43.570;27.826;2022-07-29T02:16:12;99173.03;;;20.65;100.00
11349;BME280;5729;43.570;27.826;2022-07-29T02:18:41;99175.84;;;20.62;100.00
11349;BME280;5729;43.570;27.826;2022-07-29T02:21:09;99140.69;;;20.41;100.00
11349;BME280;5729;43.570;27.826;2022-07-29T02:23:35;99152.56;;;20.54;100.00
11349;BME280;5729;43.570;27.826;2022-07-29T02:26:03;99174.47;;;20.54;100.00
11349;BME280;5729;43.570;27.826;2022-07-29T02:28:29;99168.13;;;20.57;100.00
11349;BME280;5729;43.570;27.826;2022-07-29T02:30:59;99175.69;;;20.69;100.00
11349;BME280;5729;43.570;27.826;2022-07-29T02:33:26;99168.78;;;20.64;100.00
11349;BME280;5729;43.570;27.826;2022-07-29T02:35:53;99175.22;;;20.74;100.00
11349;BME280;5729;43.570;27.826;2022-07-29T02:38:22;99180.28;;;20.76;100.00
11349;BME280;5729;43.570;27.826;2022-07-29T02:41:11;99179.16;;;20.73;100.00
11349;BME280;5729;43.570;27.826;2022-07-29T02:43:40;99145.84;;;20.55;100.00
11349;BME280;5729;43.570;27.826;2022-07-29T02:46:26;99169.25;;;20.59;100.00
11349;BME280;5729;43.570;27.826;2022-07-29T02:52:08;99179.28;;;20.46;100.00
11349;BME280;5729;43.570;27.826;2022-07-29T02:54:42;99128.16;;;20.20;100.00
11349;BME280;5729;43.570;27.826;2022-07-29T03:00:04;99177.75;;;20.65;100.00
11349;BME280;5729;43.570;27.826;2022-07-29T03:02:34;99177.03;;;20.61;100.00
11349;BME280;5729;43.570;27.826;2022-07-29T03:05:02;99176.28;;;20.60;100.00
11349;BME280;5729;43.570;27.826;2022-07-29T03:07:29;99176.28;;;20.60;100.00
11349;BME280;5729;43.570;27.826;2022-07-29T03:09:55;99180.75;;;20.51;100.00
11349;BME280;5729;43.570;27.826;2022-07-29T03:12:22;99183.16;;;20.49;100.00
11349;BME280;5729;43.570;27.826;2022-07-29T03:14:48;99183.63;;;20.44;100.00
11349;BME280;5729;43.570;27.826;2022-07-29T03:17:15;99162.66;;;20.34;100.00
11349;BME280;5729;43.570;27.826;2022-07-29T03:19:41;99163.41;;;20.38;100.00
11349;BME280;5729;43.570;27.826;2022-07-29T03:22:07;99170.59;;;20.28;100.00
11349;BME280;5729;43.570;27.826;2022-07-29T03:24:37;99204.56;;;20.54;100.00
11349;BME280;5729;43.570;27.826;2022-07-29T03:27:04;99187.50;;;20.46;100.00
11349;BME280;5729;43.570;27.826;2022-07-29T03:29:30;99141.75;;;20.23;100.00
11349;BME280;5729;43.570;27.826;2022-07-29T03:31:56;99158.06;;;20.30;100.00
11349;BME280;5729;43.570;27.826;2022-07-29T03:34:21;99197.75;;;20.62;100.00
11349;BME280;5729;43.570;27.826;2022-07-29T03:36:47;99204.16;;;20.75;100.00
11349;BME280;5729;43.570;27.826;2022-07-29T03:39:16;99158.50;;;20.49;100.00
11349;BME280;5729;43.570;27.826;2022-07-29T03:41:44;99184.84;;;20.62;100.00
11349;BME280;5729;43.570;27.826;2022-07-29T03:44:11;99206.03;;;20.78;100.00
11349;BME280;5729;43.570;27.826;2022-07-29T03:46:39;99197.75;;;20.82;100.00
11349;BME280;5729;43.570;27.826;2022-07-29T03:49:07;99188.84;;;20.78;100.00
11349;BME280;5729;43.570;27.826;2022-07-29T03:51:33;99201.06;;;20.93;100.00
11349;BME280;5729;43.570;27.826;2022-07-29T03:54:04;99198.88;;;21.04;100.00
11349;BME280;5729;43.570;27.826;2022-07-29T03:56:32;99186.78;;;21.01;100.00
11349;BME280;5729;43.570;27.826;2022-07-29T03:59:01;99209.59;;;21.15;100.00
11349;BME280;5729;43.570;27.826;2022-07-29T04:01:27;99195.63;;;21.09;100.00
11349;BME280;5729;43.570;27.826;2022-07-29T04:03:53;99177.00;;;21.00;100.00
11349;BME280;5729;43.570;27.826;2022-07-29T04:06:19;99199.94;;;21.10;100.00
11349;BME280;5729;43.570;27.826;2022-07-29T04:08:44;99198.28;;;21.13;100.00
11349;BME280;5729;43.570;27.826;2022-07-29T04:11:10;99197.50;;;21.12;100.00
11349;BME280;5729;43.570;27.826;2022-07-29T04:13:35;99186.41;;;20.99;100.00
11349;BME280;5729;43.570;27.826;2022-07-29T04:16:00;99209.56;;;21.18;100.00
11349;BME280;5729;43.570;27.826;2022-07-29T04:18:26;99176.59;;;21.02;100.00
11349;BME280;5729;43.570;27.826;2022-07-29T04:20:52;99205.88;;;21.25;100.00
11349;BME280;5729;43.570;27.826;2022-07-29T04:23:17;99181.84;;;21.13;100.00
11349;BME280;5729;43.570;27.826;2022-07-29T04:25:43;99168.84;;;21.17;100.00
11349;BME280;5729;43.570;27.826;2022-07-29T04:28:09;99199.59;;;21.44;100.00
11349;BME280;5729;43.570;27.826;2022-07-29T04:30:35;99200.88;;;21.56;100.00
11349;BME280;5729;43.570;27.826;2022-07-29T04:33:03;99207.66;;;21.67;100.00
11349;BME280;5729;43.570;27.826;2022-07-29T04:35:30;99179.38;;;21.54;100.00
11349;BME280;5729;43.570;27.826;2022-07-29T04:37:55;99197.91;;;21.83;100.00
11349;BME280;5729;43.570;27.826;2022-07-29T04:40:21;99207.16;;;21.89;100.00
11349;BME280;5729;43.570;27.826;2022-07-29T04:42:47;99209.69;;;21.99;100.00
11349;BME280;5729;43.570;27.826;2022-07-29T04:45:12;99210.69;;;22.05;100.00
11349;BME280;5729;43.570;27.826;2022-07-29T04:47:38;99200.47;;;22.06;100.00
11349;BME280;5729;43.570;27.826;2022-07-29T04:50:04;99199.44;;;22.16;100.00
11349;BME280;5729;43.570;27.826;2022-07-29T04:52:32;99194.81;;;22.13;100.00
11349;BME280;5729;43.570;27.826;2022-07-29T04:54:57;99202.34;;;22.25;100.00
11349;BME280;5729;43.570;27.826;2022-07-29T04:57:23;99188.03;;;22.18;100.00
11349;BME280;5729;43.570;27.826;2022-07-29T04:59:48;99210.41;;;22.32;100.00
11349;BME280;5729;43.570;27.826;2022-07-29T05:02:14;99199.00;;;22.34;100.00
11349;BME280;5729;43.570;27.826;2022-07-29T05:04:39;99196.28;;;22.46;100.00
11349;BME280;5729;43.570;27.826;2022-07-29T05:07:05;99194.47;;;22.56;100.00
11349;BME280;5729;43.570;27.826;2022-07-29T05:09:30;99169.94;;;22.49;100.00
11349;BME280;5729;43.570;27.826;2022-07-29T05:11:57;99186.50;;;22.74;100.00
11349;BME280;5729;43.570;27.826;2022-07-29T05:14:23;99198.66;;;22.90;100.00
11349;BME280;5729;43.570;27.826;2022-07-29T05:16:48;99199.56;;;22.99;100.00
11349;BME280;5729;43.570;27.826;2022-07-29T05:19:16;99192.31;;;23.05;100.00
11349;BME280;5729;43.570;27.826;2022-07-29T05:21:42;99166.13;;;23.01;100.00
11349;BME280;5729;43.570;27.826;2022-07-29T05:24:07;99188.69;;;23.21;100.00
11349;BME280;5729;43.570;27.826;2022-07-29T05:26:33;99198.06;;;23.36;100.00
11349;BME280;5729;43.570;27.826;2022-07-29T05:28:58;99199.25;;;23.48;100.00
11349;BME280;5729;43.570;27.826;2022-07-29T05:31:24;99198.06;;;23.62;100.00
11349;BME280;5729;43.570;27.826;2022-07-29T05:33:49;99194.22;;;23.72;100.00
11349;BME280;5729;43.570;27.826;2022-07-29T05:36:15;99192.34;;;23.81;100.00
11349;BME280;5729;43.570;27.826;2022-07-29T05:38:40;99203.78;;;23.93;100.00
11349;BME280;5729;43.570;27.826;2022-07-29T05:41:05;99196.81;;;24.01;100.00
11349;BME280;5729;43.570;27.826;2022-07-29T05:43:31;99196.78;;;24.13;100.00
11349;BME280;5729;43.570;27.826;2022-07-29T05:45:57;99200.75;;;24.25;100.00
11349;BME280;5729;43.570;27.826;2022-07-29T05:48:23;99203.13;;;24.36;100.00
11349;BME280;5729;43.570;27.826;2022-07-29T05:50:49;99202.09;;;24.42;100.00
11349;BME280;5729;43.570;27.826;2022-07-29T05:53:15;99203.53;;;24.47;100.00
11349;BME280;5729;43.570;27.826;2022-07-29T05:55:41;99200.72;;;24.59;100.00
11349;BME280;5729;43.570;27.826;2022-07-29T05:58:06;99198.03;;;24.69;100.00
11349;BME280;5729;43.570;27.826;2022-07-29T06:00:32;99198.75;;;24.82;100.00
11349;BME280;5729;43.570;27.826;2022-07-29T06:02:57;99195.78;;;24.98;100.00
11349;BME280;5729;43.570;27.826;2022-07-29T06:05:23;99198.16;;;25.09;100.00
11349;BME280;5729;43.570;27.826;2022-07-29T06:07:48;99203.13;;;25.23;100.00
11349;BME280;5729;43.570;27.826;2022-07-29T06:10:14;99207.00;;;25.35;100.00
11349;BME280;5729;43.570;27.826;2022-07-29T06:12:39;99209.50;;;25.42;100.00
11349;BME280;5729;43.570;27.826;2022-07-29T06:15:05;99205.09;;;25.53;100.00
11349;BME280;5729;43.570;27.826;2022-07-29T06:17:31;99214.31;;;25.59;100.00
11349;BME280;5729;43.570;27.826;2022-07-29T06:19:56;99199.16;;;25.64;100.00
11349;BME280;5729;43.570;27.826;2022-07-29T06:22:22;99207.19;;;25.71;100.00
11349;BME280;5729;43.570;27.826;2022-07-29T06:24:47;99199.69;;;25.81;100.00
11349;BME280;5729;43.570;27.826;2022-07-29T06:27:13;99204.31;;;25.93;100.00
11349;BME280;5729;43.570;27.826;2022-07-29T06:29:39;99189.75;;;25.92;100.00
11349;BME280;5729;43.570;27.826;2022-07-29T06:32:05;99188.22;;;26.10;100.00
11349;BME280;5729;43.570;27.826;2022-07-29T06:34:30;99185.31;;;26.13;100.00
11349;BME280;5729;43.570;27.826;2022-07-29T06:36:56;99198.13;;;26.29;94.52
11349;BME280;5729;43.570;27.826;2022-07-29T06:39:21;99184.88;;;26.24;89.09
11349;BME280;5729;43.570;27.826;2022-07-29T06:41:47;99201.00;;;26.44;86.67
11349;BME280;5729;43.570;27.826;2022-07-29T06:44:17;99195.47;;;26.53;86.38
11349;BME280;5729;43.570;27.826;2022-07-29T06:46:43;99187.03;;;26.56;79.90
11349;BME280;5729;43.570;27.826;2022-07-29T06:49:09;99191.31;;;26.66;74.12
11349;BME280;5729;43.570;27.826;2022-07-29T06:51:35;99191.78;;;26.74;77.18
11349;BME280;5729;43.570;27.826;2022-07-29T06:54:01;99187.59;;;26.88;69.36
11349;BME280;5729;43.570;27.826;2022-07-29T06:56:31;99199.16;;;26.95;72.67
11349;BME280;5729;43.570;27.826;2022-07-29T06:58:56;99181.47;;;26.93;71.65
11349;BME280;5729;43.570;27.826;2022-07-29T07:01:22;99191.25;;;27.12;73.85
11349;BME280;5729;43.570;27.826;2022-07-29T07:03:47;99186.19;;;27.20;68.36
11349;BME280;5729;43.570;27.826;2022-07-29T07:06:13;99191.97;;;27.31;68.75
11349;BME280;5729;43.570;27.826;2022-07-29T07:08:38;99193.47;;;27.41;66.56
11349;BME280;5729;43.570;27.826;2022-07-29T07:11:04;99196.66;;;27.48;66.60
11349;BME280;5729;43.570;27.826;2022-07-29T07:13:31;99191.09;;;27.58;66.83
11349;BME280;5729;43.570;27.826;2022-07-29T07:16:00;99191.34;;;27.69;61.05
11349;BME280;5729;43.570;27.826;2022-07-29T07:18:26;99177.09;;;27.61;62.34
11349;BME280;5729;43.570;27.826;2022-07-29T07:20:51;99193.59;;;27.79;59.25
11349;BME280;5729;43.570;27.826;2022-07-29T07:23:16;99194.81;;;27.88;59.89
11349;BME280;5729;43.570;27.826;2022-07-29T07:25:42;99197.03;;;27.98;59.65
11349;BME280;5729;43.570;27.826;2022-07-29T07:28:08;99187.91;;;28.07;58.33
11349;BME280;5729;43.570;27.826;2022-07-29T07:30:33;99191.06;;;28.14;59.76
11349;BME280;5729;43.570;27.826;2022-07-29T07:32:59;99195.31;;;28.25;58.95
11349;BME280;5729;43.570;27.826;2022-07-29T07:35:25;99195.16;;;28.28;59.20
11349;BME280;5729;43.570;27.826;2022-07-29T07:37:53;99193.66;;;28.42;59.47
11349;BME280;5729;43.570;27.826;2022-07-29T07:40:18;99198.19;;;28.54;58.16
11349;BME280;5729;43.570;27.826;2022-07-29T07:42:44;99204.13;;;28.62;56.73
11349;BME280;5729;43.570;27.826;2022-07-29T07:45:10;99201.63;;;28.64;57.50
11349;BME280;5729;43.570;27.826;2022-07-29T07:47:36;99187.56;;;28.67;56.52
11349;BME280;5729;43.570;27.826;2022-07-29T07:50:06;99197.34;;;28.77;56.79
11349;BME280;5729;43.570;27.826;2022-07-29T07:52:32;99201.69;;;28.93;56.71
11349;BME280;5729;43.570;27.826;2022-07-29T07:54:58;99198.03;;;29.02;55.14
11349;BME280;5729;43.570;27.826;2022-07-29T07:57:23;99200.91;;;29.07;56.04
11349;BME280;5729;43.570;27.826;2022-07-29T07:59:49;99201.88;;;29.19;53.88
11349;BME280;5729;43.570;27.826;2022-07-29T08:02:14;99209.78;;;29.26;56.16
11349;BME280;5729;43.570;27.826;2022-07-29T08:04:40;99200.84;;;30.01;53.07
11349;BME280;5729;43.570;27.826;2022-07-29T08:07:06;99199.84;;;32.56;46.22
11349;BME280;5729;43.570;27.826;2022-07-29T08:09:33;99174.28;;;34.73;38.92
11349;BME280;5729;43.570;27.826;2022-07-29T08:12:00;99204.22;;;37.42;34.50
11349;BME280;5729;43.570;27.826;2022-07-29T08:14:27;99200.84;;;38.83;31.51
11349;BME280;5729;43.570;27.826;2022-07-29T08:16:53;99197.69;;;38.87;30.04
11349;BME280;5729;43.570;27.826;2022-07-29T08:19:18;99176.00;;;40.01;29.14
11349;BME280;5729;43.570;27.826;2022-07-29T08:21:44;99196.81;;;43.29;26.04
11349;BME280;5729;43.570;27.826;2022-07-29T08:24:09;99179.56;;;46.06;22.96
11349;BME280;5729;43.570;27.826;2022-07-29T08:26:53;99183.50;;;47.96;20.15
11349;BME280;5729;43.570;27.826;2022-07-29T08:29:19;99180.72;;;50.47;18.69
11349;BME280;5729;43.570;27.826;2022-07-29T08:31:44;99177.78;;;52.74;17.81
11349;BME280;5729;43.570;27.826;2022-07-29T08:34:11;99182.72;;;54.43;15.57
11349;BME280;5729;43.570;27.826;2022-07-29T08:36:37;99171.94;;;55.64;14.71
11349;BME280;5729;43.570;27.826;2022-07-29T08:39:04;99178.84;;;55.77;14.39
11349;BME280;5729;43.570;27.826;2022-07-29T08:41:30;99176.44;;;56.15;14.07
11349;BME280;5729;43.570;27.826;2022-07-29T08:43:56;99171.72;;;56.50;13.46
11349;BME280;5729;43.570;27.826;2022-07-29T08:46:22;99160.84;;;57.00;13.76
11349;BME280;5729;43.570;27.826;2022-07-29T08:48:48;99153.91;;;57.99;12.86
11349;BME280;5729;43.570;27.826;2022-07-29T08:51:15;99166.09;;;58.59;12.76
11349;BME280;5729;43.570;27.826;2022-07-29T08:53:42;99158.66;;;58.50;12.31
11349;BME280;5729;43.570;27.826;2022-07-29T08:56:11;99135.13;;;57.72;12.28
11349;BME280;5729;43.570;27.826;2022-07-29T08:58:39;99151.56;;;58.23;12.28
11349;BME280;5729;43.570;27.826;2022-07-29T09:01:04;99153.25;;;58.34;12.24
11349;BME280;5729;43.570;27.826;2022-07-29T09:03:34;99140.63;;;58.94;12.87
11349;BME280;5729;43.570;27.826;2022-07-29T09:06:02;99144.06;;;59.66;11.75
11349;BME280;5729;43.570;27.826;2022-07-29T09:08:30;99150.06;;;58.92;12.00
11349;BME280;5729;43.570;27.826;2022-07-29T09:10:56;99148.88;;;59.47;12.07
11349;BME280;5729;43.570;27.826;2022-07-29T09:13:22;99141.47;;;60.39;11.80
11349;BME280;5729;43.570;27.826;2022-07-29T09:15:48;99147.78;;;60.21;11.57
11349;BME280;5729;43.570;27.826;2022-07-29T09:18:41;99130.41;;;60.29;11.65
11349;BME280;5729;43.570;27.826;2022-07-29T09:21:09;99119.25;;;60.74;11.71
11349;BME280;5729;43.570;27.826;2022-07-29T09:24:13;99128.06;;;59.65;11.52
11349;BME280;5729;43.570;27.826;2022-07-29T09:26:43;99132.59;;;58.90;11.43
11349;BME280;5729;43.570;27.826;2022-07-29T09:29:18;99130.50;;;58.97;11.72
11349;BME280;5729;43.570;27.826;2022-07-29T09:31:49;99126.13;;;58.56;12.26
11349;BME280;5729;43.570;27.826;2022-07-29T09:34:27;99124.69;;;56.75;12.83
11349;BME280;5729;43.570;27.826;2022-07-29T09:36:54;99092.22;;;55.14;13.65
11349;BME280;5729;43.570;27.826;2022-07-29T09:41:55;99111.13;;;54.00;15.01
11349;BME280;5729;43.570;27.826;2022-07-29T09:44:22;99097.44;;;54.00;14.75
11349;BME280;5729;43.570;27.826;2022-07-29T09:46:58;99106.78;;;53.63;14.48
11349;BME280;5729;43.570;27.826;2022-07-29T09:49:27;99099.28;;;53.56;15.30
11349;BME280;5729;43.570;27.826;2022-07-29T09:52:01;99101.75;;;52.79;15.13
11349;BME280;5729;43.570;27.826;2022-07-29T09:54:28;99102.28;;;51.38;16.00
11349;BME280;5729;43.570;27.826;2022-07-29T09:56:55;99077.84;;;50.67;16.53
11349;BME280;5729;43.570;27.826;2022-07-29T09:59:21;99110.53;;;50.34;16.75
11349;BME280;5729;43.570;27.826;2022-07-29T10:01:49;99078.53;;;49.87;16.86
11349;BME280;5729;43.570;27.826;2022-07-29T10:04:15;99093.47;;;50.11;17.93
11349;BME280;5729;43.570;27.826;2022-07-29T10:06:58;99082.50;;;50.74;16.78
11349;BME280;5729;43.570;27.826;2022-07-29T10:09:24;99074.72;;;50.49;17.23
11349;BME280;5729;43.570;27.826;2022-07-29T10:12:10;99093.88;;;50.19;17.39
11349;BME280;5729;43.570;27.826;2022-07-29T10:14:37;99090.81;;;49.90;17.25
11349;BME280;5729;43.570;27.826;2022-07-29T10:17:04;99075.97;;;50.46;17.27
11349;BME280;5729;43.570;27.826;2022-07-29T10:19:30;99077.94;;;50.96;17.57
11349;BME280;5729;43.570;27.826;2022-07-29T10:22:01;99084.72;;;50.75;17.05
11349;BME280;5729;43.570;27.826;2022-07-29T10:24:28;99080.66;;;50.39;17.34
11349;BME280;5729;43.570;27.826;2022-07-29T10:26:59;99073.28;;;50.09;16.93
11349;BME280;5729;43.570;27.826;2022-07-29T10:29:25;99070.72;;;49.76;17.57
11349;BME280;5729;43.570;27.826;2022-07-29T10:34:44;99071.22;;;49.98;17.13
11349;BME280;5729;43.570;27.826;2022-07-29T10:40:17;99066.56;;;50.57;16.81
11349;BME280;5729;43.570;27.826;2022-07-29T10:43:16;99076.81;;;49.08;17.80
11349;BME280;5729;43.570;27.826;2022-07-29T10:45:45;99063.72;;;45.89;19.68
11349;BME280;5729;43.570;27.826;2022-07-29T10:48:11;99058.38;;;43.62;21.87
11349;BME280;5729;43.570;27.826;2022-07-29T10:51:05;99059.16;;;43.03;22.74
11349;BME280;5729;43.570;27.826;2022-07-29T10:53:53;99056.09;;;43.78;22.96
11349;BME280;5729;43.570;27.826;2022-07-29T10:56:27;99058.59;;;43.74;22.28
11349;BME280;5729;43.570;27.826;2022-07-29T11:01:47;99033.19;;;44.20;22.75
11349;BME280;5729;43.570;27.826;2022-07-29T11:04:13;99033.75;;;43.30;23.70
11349;BME280;5729;43.570;27.826;2022-07-29T11:09:27;99050.72;;;43.21;23.76
11349;BME280;5729;43.570;27.826;2022-07-29T11:11:56;99038.47;;;43.79;23.34
11349;BME280;5729;43.570;27.826;2022-07-29T11:17:23;99035.34;;;41.75;25.32
11349;BME280;5729;43.570;27.826;2022-07-29T11:19:48;99038.72;;;40.64;27.21
11349;BME280;5729;43.570;27.826;2022-07-29T11:22:34;99042.06;;;39.59;27.90
11349;BME280;5729;43.570;27.826;2022-07-29T11:25:16;99040.13;;;39.46;27.63
11349;BME280;5729;43.570;27.826;2022-07-29T11:27:42;99037.03;;;40.69;27.13
11349;BME280;5729;43.570;27.826;2022-07-29T11:30:09;99033.75;;;42.21;25.98
11349;BME280;5729;43.570;27.826;2022-07-29T11:32:39;99030.41;;;43.41;23.97
11349;BME280;5729;43.570;27.826;2022-07-29T11:35:21;99025.44;;;44.67;23.28
11349;BME280;5729;43.570;27.826;2022-07-29T11:38:27;99028.59;;;45.96;21.66
11349;BME280;5729;43.570;27.826;2022-07-29T11:44:09;99032.16;;;44.71;21.80
11349;BME280;5729;43.570;27.826;2022-07-29T11:46:48;98996.59;;;44.34;22.70
11349;BME280;5729;43.570;27.826;2022-07-29T11:49:25;99025.66;;;45.07;21.98
11349;BME280;5729;43.570;27.826;2022-07-29T11:51:55;99017.59;;;45.23;20.68
11349;BME280;5729;43.570;27.826;2022-07-29T11:54:32;99015.03;;;45.27;20.71
11349;BME280;5729;43.570;27.826;2022-07-29T11:56:58;99015.63;;;45.45;20.93
11349;BME280;5729;43.570;27.826;2022-07-29T11:59:25;99021.78;;;45.70;22.16
11349;BME280;5729;43.570;27.826;2022-07-29T12:01:54;99010.09;;;46.16;20.83
11349;BME280;5729;43.570;27.826;2022-07-29T12:04:20;99006.09;;;46.00;20.89
11349;BME280;5729;43.570;27.826;2022-07-29T12:06:53;99004.94;;;45.94;20.73
11349;BME280;5729;43.570;27.826;2022-07-29T12:09:19;99009.66;;;45.50;20.39
11349;BME280;5729;43.570;27.826;2022-07-29T12:11:46;99001.09;;;45.41;21.38
11349;BME280;5729;43.570;27.826;2022-07-29T12:14:28;98993.75;;;45.09;21.04
11349;BME280;5729;43.570;27.826;2022-07-29T12:16:54;99001.34;;;44.68;21.06
11349;BME280;5729;43.570;27.826;2022-07-29T12:19:19;98990.66;;;44.49;21.07
11349;BME280;5729;43.570;27.826;2022-07-29T12:21:55;98983.19;;;44.44;22.07
11349;BME280;5729;43.570;27.826;2022-07-29T12:24:23;98984.91;;;44.76;21.12
11349;BME280;5729;43.570;27.826;2022-07-29T12:26:56;98989.59;;;45.19;21.46
11349;BME280;5729;43.570;27.826;2022-07-29T12:29:22;98987.00;;;45.62;22.21
11349;BME280;5729;43.570;27.826;2022-07-29T12:31:52;98973.94;;;45.78;20.62
11349;BME280;5729;43.570;27.826;2022-07-29T12:34:26;98970.53;;;46.11;21.46
11349;BME280;5729;43.570;27.826;2022-07-29T12:36:53;98954.22;;;46.02;20.28
11349;BME280;5729;43.570;27.826;2022-07-29T12:39:19;98946.47;;;45.92;20.35
11349;BME280;5729;43.570;27.826;2022-07-29T12:41:45;98960.47;;;46.41;20.89
11349;BME280;5729;43.570;27.826;2022-07-29T12:44:10;98959.03;;;47.04;19.65
11349;BME280;5729;43.570;27.826;2022-07-29T12:46:36;98965.81;;;47.31;20.59
11349;BME280;5729;43.570;27.826;2022-07-29T12:49:03;98968.59;;;47.74;19.00
11349;BME280;5729;43.570;27.826;2022-07-29T12:51:33;98958.75;;;47.32;19.75
11349;BME280;5729;43.570;27.826;2022-07-29T12:54:13;98952.28;;;46.99;19.60
11349;BME280;5729;43.570;27.826;2022-07-29T12:56:44;98951.78;;;46.70;19.15
11349;BME280;5729;43.570;27.826;2022-07-29T12:59:20;98964.69;;;46.09;20.55
11349;BME280;5729;43.570;27.826;2022-07-29T13:01:48;98945.38;;;45.57;20.74
11349;BME280;5729;43.570;27.826;2022-07-29T13:04:33;98946.59;;;45.35;20.21
11349;BME280;5729;43.570;27.826;2022-07-29T13:07:06;98954.25;;;45.03;20.75
11349;BME280;5729;43.570;27.826;2022-07-29T13:09:43;98968.09;;;44.61;21.32
11349;BME280;5729;43.570;27.826;2022-07-29T13:12:11;98948.84;;;44.69;20.84
11349;BME280;5729;43.570;27.826;2022-07-29T13:14:37;98951.78;;;44.61;20.83
11349;BME280;5729;43.570;27.826;2022-07-29T13:17:07;98962.13;;;44.57;22.54
11349;BME280;5729;43.570;27.826;2022-07-29T13:19:34;98949.84;;;44.44;21.14
11349;BME280;5729;43.570;27.826;2022-07-29T13:22:01;98919.94;;;44.43;21.23
11349;BME280;5729;43.570;27.826;2022-07-29T13:24:27;98941.94;;;44.62;21.19
11349;BME280;5729;43.570;27.826;2022-07-29T13:26:53;98951.88;;;44.34;20.62
11349;BME280;5729;43.570;27.826;2022-07-29T13:29:18;98953.56;;;43.74;21.18
11349;BME280;5729;43.570;27.826;2022-07-29T13:31:43;98951.19;;;43.53;21.25
11349;BME280;5729;43.570;27.826;2022-07-29T13:34:09;98958.97;;;43.53;22.20
11349;BME280;5729;43.570;27.826;2022-07-29T13:36:34;98958.28;;;44.25;21.23